Home > Products > Valid Products > TAF

000
FTUS41 KPBZ 020900 AAA
TAFHLG
TAF AMD
KHLG 020914Z 0209/0306 22010KT P6SM SCT015 BKN025
      TEMPO 0209/0212 BKN015
     FM021500 22008KT 6SM -SHRA BKN035
      TEMPO 0216/0220 2SM -TSRA BKN025CB
     FM022200 24008KT P6SM BKN050=



000
FTUS41 KPBZ 020800 AAA
TAFPIT
TAF AMD
KPIT 020830Z 0209/0312 22007KT P6SM SCT015 BKN080
      TEMPO 0209/0212 BKN015
     FM021200 23008KT P6SM BKN022
     FM021500 22008KT 6SM -SHRA BKN035
      TEMPO 0216/0220 2SM -TSRA BKN025CB
     FM022200 24008KT P6SM BKN050=



000
FTUS41 KPBZ 020500
TAFAGC
TAF
KAGC 020529Z 0206/0306 21007KT P6SM SCT050
     FM020900 22007KT P6SM SCT015 BKN080
     FM021500 22008KT 6SM -SHRA BKN040
      TEMPO 0216/0220 2SM -TSRA BKN025CB
     FM022200 24008KT P6SM BKN050=



000
FTUS41 KPBZ 020500
TAFPIT
TAF
KPIT 020529Z 0206/0312 21007KT P6SM SCT050
     FM020900 22007KT P6SM SCT015 BKN080
     FM021500 22008KT 6SM -SHRA BKN040
      TEMPO 0216/0220 2SM -TSRA BKN025CB
     FM022200 24008KT P6SM BKN050=



000
FTUS41 KPBZ 020500
TAFBVI
TAF
KBVI 020529Z 0206/0306 21007KT P6SM SCT050
     FM020900 22007KT P6SM SCT015 BKN080
     FM021500 22008KT 6SM -SHRA BKN040
      TEMPO 0216/0220 2SM -TSRA BKN025CB
     FM022200 24008KT P6SM BKN050=



000
FTUS41 KPBZ 020500
TAFMGW
TAF
KMGW 020529Z 0206/0306 21007KT P6SM SCT050
     FM020900 22007KT P6SM SCT015 BKN080
     FM021500 22008KT 6SM -SHRA BKN040
      TEMPO 0216/0220 2SM -TSRA BKN025CB
     FM022300 24008KT P6SM BKN050=



000
FTUS41 KPBZ 020500
TAFDUJ
TAF
KDUJ 020529Z 0206/0306 22008KT P6SM VCSH BKN015
     FM020700 22006KT P6SM BKN008
     FM021600 22008KT 6SM -SHRA BKN030
      TEMPO 0217/0221 2SM -TSRA BKN020CB
     FM022300 24008KT P6SM BKN050=



000
FTUS41 KPBZ 020500
TAFHLG
TAF
KHLG 020529Z 0206/0306 21007KT P6SM SCT050
     FM020900 22007KT P6SM SCT015 BKN080
     FM021500 22008KT 6SM -SHRA BKN040
      TEMPO 0216/0220 2SM -TSRA BKN025CB
     FM022200 24008KT P6SM BKN050=



000
FTUS41 KPBZ 020500
TAFLBE
TAF
KLBE 020529Z 0206/0306 21007KT P6SM SCT050
     FM020900 22007KT P6SM SCT015 BKN080
     FM021500 22008KT 6SM -SHRA BKN040
      TEMPO 0217/0221 2SM -TSRA BKN025CB
     FM022300 24008KT P6SM BKN050=



000
FTUS41 KPBZ 020500
TAFZZV
TAF
KZZV 020529Z 0206/0306 21007KT P6SM SCT050
     FM020900 22007KT P6SM SCT015 BKN080
     FM021400 22008KT 6SM -SHRA BKN040
      TEMPO 0215/0219 2SM -TSRA BKN025CB
     FM022100 24008KT P6SM BKN050=



000
FTUS41 KPBZ 020400 AAA
TAFDUJ
TAF AMD
KDUJ 020420Z 0204/0224 21008KT P6SM VCSH SCT030 BKN080
     FM020800 22006KT P6SM BKN008
     FM021600 22008KT 6SM -SHRA BKN030
      TEMPO 0217/0221 2SM -TSRA BKN020CB
     FM022300 24008KT P6SM BKN050=



000
FTUS41 KPBZ 020200 AAA
TAFPIT
TAF AMD
KPIT 020238Z 0203/0306 21007KT P6SM SCT050
      TEMPO 0208/0212 4SM BR BKN025
     FM021500 22008KT P6SM -SHRA BKN040
      TEMPO 0217/0221 3SM TSRA OVC035CB
     FM022300 24008KT P6SM BKN025=



000
FTUS41 KPBZ 012300
TAFLBE
TAF
KLBE 012336Z 0200/0224 21010KT P6SM SCT040
      TEMPO 0208/0212 4SM BR BKN025
     FM021600 22008KT P6SM -SHRA BKN040
      TEMPO 0218/0222 3SM TSRA OVC035CB=



000
FTUS41 KPBZ 012300
TAFDUJ
TAF
KDUJ 012336Z 0200/0224 21007KT P6SM VCSH FEW030 BKN080
     FM020700 24006KT 3SM BR BKN004
     FM021600 22008KT P6SM -SHRA BKN040
      TEMPO 0218/0222 3SM TSRA OVC035CB=



000
FTUS41 KPBZ 012300
TAFMGW
TAF
KMGW 012336Z 0200/0224 00000KT P6SM SCT040
      TEMPO 0208/0212 4SM BR BKN025
     FM021600 22008KT P6SM -SHRA BKN040
      TEMPO 0218/0222 3SM TSRA OVC035CB=



000
FTUS41 KPBZ 012300
TAFPIT
TAF
KPIT 012336Z 0200/0306 21007KT P6SM SCT035
      TEMPO 0208/0212 4SM BR BKN025
     FM021500 22008KT P6SM -SHRA BKN040
      TEMPO 0217/0221 3SM TSRA OVC035CB
     FM022300 24008KT P6SM BKN025=



000
FTUS41 KPBZ 012300
TAFBVI
TAF
KBVI 012336Z 0200/0224 23008KT P6SM SCT035
      TEMPO 0208/0212 4SM BR BKN025
     FM021500 22008KT P6SM -SHRA BKN040
      TEMPO 0217/0221 3SM TSRA OVC035CB
     FM022300 24008KT P6SM BKN025
      AMD NOT SKED 0201/0211=



000
FTUS41 KPBZ 012300
TAFAGC
TAF
KAGC 012336Z 0200/0224 19006KT P6SM SCT035
      TEMPO 0208/0212 4SM BR BKN025
     FM021500 22008KT P6SM -SHRA BKN040
      TEMPO 0217/0221 3SM TSRA OVC035CB
     FM022300 24008KT P6SM BKN025=



000
FTUS41 KPBZ 012300
TAFZZV
TAF
KZZV 012336Z 0200/0224 20004KT P6SM SCT040
     FM021400 22008KT P6SM -SHRA BKN040
      TEMPO 0216/0220 3SM TSRA OVC035CB
     FM022200 23008KT P6SM BKN025=



000
FTUS41 KPBZ 012300
TAFHLG
TAF
KHLG 012336Z 0200/0224 20007KT P6SM SCT040
      TEMPO 0208/0212 4SM BR BKN025
     FM021400 22008KT P6SM -SHRA BKN040
      TEMPO 0216/0220 3SM TSRA OVC035CB
     FM022200 23008KT P6SM BKN025=



000
FTUS41 KPBZ 012000 AAA
TAFPIT
TAF AMD
KPIT 012056Z 0121/0224 22005KT P6SM BKN060
     FM021000 22006KT 4SM BR BKN025=



000
FTUS41 KPBZ 011700
TAFMGW
TAF
KMGW 011720Z 0118/0218 23006KT P6SM BKN019 OVC050
     FM011900 22010KT P6SM VCSH BKN035
     FM021000 22006KT 4SM BR BKN025=



000
FTUS41 KPBZ 011700
TAFAGC
TAF
KAGC 011720Z 0118/0218 24010KT P6SM VCSH FEW021 SCT029 BKN040
     FM021000 22006KT 4SM BR BKN025=



000
FTUS41 KPBZ 011700
TAFDUJ
TAF
KDUJ 011720Z 0118/0218 23004KT 3SM -SHRA BR FEW007 BKN015 OVC024
     FM011900 24010KT P6SM VCSH BKN035
     FM020700 24006KT 3SM BR BKN004=



000
FTUS41 KPBZ 011700
TAFHLG
TAF
KHLG 011720Z 0118/0218 23009G16KT P6SM VCSH FEW010 SCT017 BKN045
     FM021000 22006KT 4SM BR BKN025=



000
FTUS41 KPBZ 011700
TAFLBE
TAF
KLBE 011720Z 0118/0218 22008KT P6SM SCT020 BKN035
     FM012000 22010KT P6SM VCSH BKN035
     FM021000 22006KT 4SM BR BKN025=



000
FTUS41 KPBZ 011700
TAFPIT
TAF
KPIT 011720Z 0118/0224 23008KT P6SM VCSH BKN026 BKN040
     FM011900 22010KT P6SM VCSH BKN035
     FM021000 22006KT 4SM BR BKN025=



000
FTUS41 KPBZ 011700
TAFBVI
TAF
KBVI 011720Z 0118/0218 23008KT P6SM BKN030
     FM011900 23010KT P6SM VCSH BKN035
     FM021000 22006KT 4SM BR BKN025
      AMD NOT SKED=



000
FTUS41 KPBZ 011700
TAFZZV
TAF
KZZV 011720Z 0118/0218 21010KT 5SM SHRA VCTS BKN025CB
     FM011900 22010KT P6SM VCSH BKN035
     FM020700 22006KT 4SM BR BKN025=



000
FTUS41 KPBZ 011400 AAA
TAFPIT
TAF AMD
KPIT 011455Z 0115/0218 23007KT P6SM BKN015 BKN028
     FM011800 23008KT P6SM BKN040
     FM021000 24006KT P6SM VCSH BKN025=



000
FTUS41 KPBZ 011400 AAB
TAFAGC
TAF AMD
KAGC 011431Z 0115/0212 22006KT P6SM FEW008 SCT020 OVC035
     FM011800 23008KT P6SM BKN040
     FM021000 24006KT P6SM VCSH BKN035=



000
FTUS41 KPBZ 011400 AAA
TAFAGC
TAF AMD
KAGC 011403Z 0114/0212 20004KT 5SM BR OVC012
      TEMPO 0114/0115 2SM -DZ BR BKN004
     FM011500 23005KT P6SM OVC025
     FM011800 23008KT P6SM BKN040
     FM021000 24006KT P6SM VCSH BKN035=



000
FTUS41 KPBZ 011400 AAA
TAFLBE
TAF AMD
KLBE 011403Z 0114/0212 21004KT P6SM OVC015
      TEMPO 0114/0115 2SM -DZ BR BKN006
     FM011500 23005KT P6SM OVC025
     FM011700 23008KT P6SM BKN040=



000
FTUS41 KPBZ 011300 AAA
TAFHLG
TAF AMD
KHLG 011313Z 0113/0212 23006KT P6SM FEW005 OVC030
     FM011700 23008KT P6SM BKN040
     FM021000 24006KT P6SM VCSH BKN035=



000
FTUS41 KPBZ 011100 CCA
TAFHLG
TAF COR
KHLG 011145Z 0112/0212 21004KT P6SM SCT010 OVC014
      TEMPO 0112/0114 1SM -SHRA BR BKN010 OVC014
     FM011500 23005KT P6SM OVC025
     FM011700 23008KT P6SM BKN040
     FM021000 24006KT P6SM VCSH BKN035=



000
FTUS41 KPBZ 011100
TAFLBE
TAF
KLBE 011120Z 0112/0212 21004KT P6SM OVC015
      TEMPO 0112/0114 3SM -DZ BR BKN009
     FM011500 23005KT P6SM OVC025
     FM011700 23008KT P6SM BKN040=



000
FTUS41 KPBZ 011100
TAFMGW
TAF
KMGW 011120Z 0112/0212 20003KT P6SM BKN012 OVC018
     FM011500 23005KT P6SM OVC025
     FM011700 23008KT P6SM BKN040
     FM020500 24006KT P6SM VCSH BKN035=



000
FTUS41 KPBZ 011100
TAFAGC
TAF
KAGC 011120Z 0112/0212 20004KT 5SM BR OVC012
      TEMPO 0112/0114 1 1/2SM -DZ BR BKN005
     FM011500 23005KT P6SM OVC025
     FM011800 23008KT P6SM BKN040
     FM021000 24006KT P6SM VCSH BKN035=



000
FTUS41 KPBZ 011100
TAFHLG
TAF
KHLG 011120Z 0112/0212 21004KT P6SM SCT010 OVC014
     FM011500 23005KT P6SM OVC025
     FM011700 23008KT P6SM BKN040
     FM021000 24006KT P6SM VCSH BKN035=



000
FTUS41 KPBZ 011100
TAFDUJ
TAF
KDUJ 011120Z 0112/0212 23004KT 3SM BR OVC008
     FM011400 22006KT P6SM OVC012
     FM011600 21007KT P6SM OVC025
     FM011700 21008KT P6SM BKN035
     FM021000 24006KT P6SM VCSH BKN035=



000
FTUS41 KPBZ 011100
TAFPIT
TAF
KPIT 011120Z 0112/0218 21004KT P6SM OVC012
      TEMPO 0112/0114 4SM -DZ BR BKN009
     FM011500 23005KT P6SM OVC025
     FM011800 23008KT P6SM BKN040
     FM021000 24006KT P6SM VCSH BKN025=



000
FTUS41 KPBZ 011100
TAFBVI
TAF
KBVI 011120Z 0112/0212 21004KT P6SM OVC008
     FM011300 20004KT P6SM OVC012
     FM011500 23005KT P6SM OVC025
     FM011700 23008KT P6SM BKN040
     FM020900 24006KT P6SM VCSH BKN035=



000
FTUS41 KPBZ 011100
TAFZZV
TAF
KZZV 011120Z 0112/0212 18003KT P6SM OVC015
     FM011500 23005KT P6SM OVC025
     FM011700 23008KT P6SM BKN040
     FM020300 24006KT P6SM VCSH BKN035=



000
FTUS41 KPBZ 011000 AAC
TAFAGC
TAF AMD
KAGC 011032Z 0111/0206 16003KT 1 1/2SM -SHRA BR BKN006
     FM011300 18003KT P6SM BKN012
     FM011500 23005KT P6SM BKN025
     FM011700 23008KT P6SM SCT040
     FM020500 24006KT P6SM VCSH BKN035=



000
FTUS41 KPBZ 011000 AAC
TAFPIT
TAF AMD
KPIT 011032Z 0111/0212 21004KT P6SM -SHRA SCT008 OVC012
     FM011500 23005KT P6SM BKN025
     FM011700 23008KT P6SM SCT040
     FM020500 24006KT P6SM VCSH BKN035=



000
FTUS41 KPBZ 011000 AAC
TAFHLG
TAF AMD
KHLG 011019Z 0110/0206 18004KT P6SM OVC012
     FM011500 23005KT P6SM BKN025
     FM011700 23008KT P6SM SCT040
     FM020500 24006KT P6SM VCSH BKN035=



000
FTUS41 KPBZ 011000 AAC
TAFLBE
TAF AMD
KLBE 011003Z 0110/0206 21004KT P6SM OVC012
     FM011400 23005KT P6SM BKN025
     FM011700 23008KT P6SM SCT040=



000
FTUS41 KPBZ 011000 AAB
TAFZZV
TAF AMD
KZZV 011002Z 0110/0206 18003KT P6SM BKN015
     FM011200 20004KT P6SM BKN022
     FM011600 23005KT P6SM SCT028
     FM020300 24006KT P6SM VCSH BKN035=



000
FTUS41 KPBZ 011000 AAB
TAFMGW
TAF AMD
KMGW 011002Z 0110/0206 20003KT 4SM -SHRA BR BKN015
     FM011200 20004KT P6SM BKN012
     FM011500 23005KT P6SM BKN025
     FM011700 23008KT P6SM SCT040
     FM020500 24006KT P6SM VCSH BKN035=



000
FTUS41 KPBZ 011000 AAB
TAFHLG
TAF AMD
KHLG 011001Z 0110/0206 18004KT P6SM OVC008
     FM011300 20004KT P6SM BKN012
     FM011500 23005KT P6SM BKN025
     FM011700 23008KT P6SM SCT040
     FM020500 24006KT P6SM VCSH BKN035=



000
FTUS41 KPBZ 011000 AAB
TAFLBE
TAF AMD
KLBE 011000Z 0110/0206 21004KT P6SM OVC015
     FM011500 23005KT P6SM BKN025
     FM011700 23008KT P6SM SCT040=



000
FTUS41 KPBZ 010900 AAB
TAFAGC
TAF AMD
KAGC 010959Z 0110/0206 18003KT P6SM BKN012
     FM011500 23005KT P6SM BKN025
     FM011700 23008KT P6SM SCT040
     FM020500 24006KT P6SM VCSH BKN035=



000
FTUS41 KPBZ 010900 AAA
TAFZZV
TAF AMD
KZZV 010907Z 0109/0206 18003KT P6SM BKN007
     FM011200 20004KT P6SM BKN012
     FM011600 23005KT P6SM SCT025
     FM020300 24006KT P6SM VCSH BKN035=



000
FTUS41 KPBZ 010900 AAB
TAFPIT
TAF AMD
KPIT 010906Z 0109/0212 21004KT P6SM OVC012
     FM011500 23005KT P6SM BKN025
     FM011700 23008KT P6SM SCT040
     FM020500 24006KT P6SM VCSH BKN035=



000
FTUS41 KPBZ 010800 AAA
TAFHLG
TAF AMD
KHLG 010810Z 0108/0206 21004KT P6SM OVC007
     FM011000 20004KT 2SM BR BKN005
     FM011300 20004KT P6SM BKN012
     FM011500 23005KT P6SM BKN025
     FM011700 23008KT P6SM SCT040
     FM020500 24006KT P6SM VCSH BKN035=



000
FTUS41 KPBZ 010800 AAA
TAFAGC
TAF AMD
KAGC 010809Z 0108/0206 21004KT P6SM OVC008
     FM011000 20004KT 4SM BR BKN006
     FM011200 20004KT P6SM BKN012
     FM011500 23005KT P6SM BKN025
     FM011700 23008KT P6SM SCT040
     FM020500 24006KT P6SM VCSH BKN035=



000
FTUS41 KPBZ 010800 AAA
TAFPIT
TAF AMD
KPIT 010809Z 0108/0212 21004KT P6SM OVC008
     FM011000 20004KT 4SM BR BKN006
     FM011200 20004KT P6SM BKN012
     FM011500 23005KT P6SM BKN025
     FM011700 23008KT P6SM SCT040
     FM020500 24006KT P6SM VCSH BKN035=



000
FTUS41 KPBZ 010800 AAA
TAFLBE
TAF AMD
KLBE 010808Z 0108/0206 21004KT P6SM OVC015
     FM011000 20004KT 4SM BR BKN008
     FM011200 20004KT P6SM BKN012
     FM011500 23005KT P6SM BKN025
     FM011700 23008KT P6SM SCT040=



000
FTUS41 KPBZ 010800 AAA
TAFDUJ
TAF AMD
KDUJ 010807Z 0108/0206 24008KT 4SM BR OVC005
     FM011300 22006KT P6SM BKN010
     FM011600 21007KT P6SM BKN025
     FM011700 21008KT P6SM SCT035
     FM020500 24006KT P6SM VCSH BKN035=



000
FTUS41 KPBZ 010700 AAA
TAFMGW
TAF AMD
KMGW 010706Z 0107/0206 20003KT 4SM -SHRA BR BKN020
     FM011000 18002KT 4SM BR OVC008
     FM011200 20004KT P6SM BKN012
     FM011500 23005KT P6SM BKN025
     FM011700 23008KT P6SM SCT040
     FM020500 24006KT P6SM VCSH BKN035=



000
FTUS41 KPBZ 010500
TAFZZV
TAF
KZZV 010526Z 0106/0206 18003KT 4SM BR OVC004
     FM010800 18002KT 1SM BR OVC002
     FM011400 20004KT 5SM BR BKN010
     FM011600 23005KT P6SM SCT025
     FM020300 24006KT P6SM VCSH BKN035=



000
FTUS41 KPBZ 010500
TAFMGW
TAF
KMGW 010526Z 0106/0206 18003KT 4SM -SHRA BR BKN013
     FM010700 18002KT 4SM BR OVC008
     FM010800 18002KT 1SM BR OVC003
     FM011200 20004KT P6SM BKN012
     FM011500 23005KT P6SM BKN025
     FM011700 23008KT P6SM SCT040
     FM020500 24006KT P6SM VCSH BKN035=



000
FTUS41 KPBZ 010500
TAFDUJ
TAF
KDUJ 010526Z 0106/0206 21005KT 4SM BR OVC004
     FM010800 20002KT 1/2SM FG VV001
     FM011300 19005KT 4SM BR BKN010
     FM011600 21007KT P6SM BKN025
     FM011700 21008KT P6SM SCT035
     FM020500 24006KT P6SM VCSH BKN035=



000
FTUS41 KPBZ 010500
TAFHLG
TAF
KHLG 010526Z 0106/0206 21004KT P6SM OVC008
     FM010800 20004KT 4SM BR BKN004
     FM011300 20004KT P6SM BKN012
     FM011500 23005KT P6SM BKN025
     FM011700 23008KT P6SM SCT040
     FM020500 24006KT P6SM VCSH BKN035=



000
FTUS41 KPBZ 010500
TAFLBE
TAF
KLBE 010526Z 0106/0206 21004KT P6SM OVC008
     FM010800 20004KT 4SM BR BKN004
     FM011200 20004KT P6SM BKN012
     FM011500 23005KT P6SM BKN025
     FM011700 23008KT P6SM SCT040=



000
FTUS41 KPBZ 010500
TAFPIT
TAF
KPIT 010526Z 0106/0212 21004KT P6SM OVC008
     FM010800 20004KT 4SM BR BKN004
     FM011200 20004KT P6SM BKN012
     FM011500 23005KT P6SM BKN025
     FM011700 23008KT P6SM SCT040
     FM020500 24006KT P6SM VCSH BKN035=



000
FTUS41 KPBZ 010500
TAFAGC
TAF
KAGC 010526Z 0106/0206 21004KT P6SM OVC008
     FM010800 20004KT 4SM BR BKN004
     FM011200 20004KT P6SM BKN012
     FM011500 23005KT P6SM BKN025
     FM011700 23008KT P6SM SCT040
     FM020500 24006KT P6SM VCSH BKN035=



000
FTUS41 KPBZ 010500
TAFBVI
TAF
KBVI 010526Z 0106/0206 21004KT P6SM OVC008
     FM010800 20004KT 4SM BR BKN004
     FM011200 20004KT P6SM BKN012
     FM011500 23005KT P6SM BKN025
     FM011700 23008KT P6SM SCT040
     FM020500 24006KT P6SM VCSH BKN035
      AMD NOT SKED=



000
FTUS41 KPBZ 010400 AAB
TAFDUJ
TAF AMD
KDUJ 010454Z 0105/0124 22005KT 2SM -SHRA BR BKN020
     FM010600 21005KT 4SM BR OVC004
     FM010800 20002KT 1/2SM FG VV001
     FM011300 19005KT 4SM BR BKN010
     FM011600 21007KT P6SM BKN025
     FM011700 21008KT P6SM SCT035=



000
FTUS41 KPBZ 010400 AAA
TAFLBE
TAF AMD
KLBE 010435Z 0105/0124 19006KT P6SM BKN014
     FM010600 20005KT 4SM BR BKN007
     FM011300 20004KT 5SM BR BKN010
     FM011600 23005KT P6SM BKN025
     FM011800 23008KT P6SM BKN035=



000
FTUS41 KPBZ 010300 AAC
TAFPIT
TAF AMD
KPIT 010338Z 0104/0206 22005KT P6SM SCT010 BKN020
     FM010500 20004KT 4SM BR BKN007
     FM011200 20004KT 5SM BR BKN010
     FM011500 23005KT P6SM BKN025
     FM011700 23008KT P6SM BKN035=



000
FTUS41 KPBZ 010300 AAA
TAFMGW
TAF AMD
KMGW 010337Z 0104/0124 20003KT P6SM BKN020
     FM010600 20003KT 2SM BR OVC012
     FM011500 23005KT P6SM BKN025
     FM011800 23008KT P6SM SCT035=



000
FTUS41 KPBZ 010300 AAA
TAFHLG
TAF AMD
KHLG 010336Z 0104/0124 20005KT 3SM BR OVC007
     FM010700 20005KT 1SM BR OVC003
     FM011400 20004KT 5SM BR BKN010
     FM011600 23005KT P6SM BKN025
     FM011800 23008KT P6SM SCT035=



000
FTUS41 KPBZ 010200 AAB
TAFPIT
TAF AMD
KPIT 010233Z 0103/0206 21006KT P6SM VCSH SCT022 SCT035
     FM010500 20005KT 4SM BR BKN007
     FM011200 20004KT 5SM BR BKN010
     FM011500 23005KT P6SM BKN025
     FM011700 23008KT P6SM BKN035=



000
FTUS41 KPBZ 010200 AAA
TAFAGC
TAF AMD
KAGC 010233Z 0103/0124 21005KT P6SM BKN018 BKN022 OVC035
     FM010400 20005KT 4SM BR BKN007
     FM011200 20004KT 5SM BR BKN010
     FM011500 23005KT P6SM BKN025
     FM011700 23008KT P6SM BKN035=



000
FTUS41 KPBZ 010200 AAA
TAFDUJ
TAF AMD
KDUJ 010223Z 0102/0124 21004KT P6SM FEW019 SCT023 OVC045
     FM010300 22006KT 6SM BR SCT050 BKN120
     FM010500 VRB03KT 2SM BR OVC004
     FM011300 23005KT 4SM BR BKN010
     FM011600 23007KT P6SM BKN025
     FM011700 24010KT P6SM SCT035=



000
FTUS41 KPBZ 010000 CCA
TAFAGC
TAF COR
KAGC 010014Z 0100/0124 18005KT P6SM VCSH FEW035 BKN050 BKN060
     FM010100 21007KT 6SM BR VCSH SCT005 SCT023 BKN120
     FM010400 20005KT 4SM BR BKN007
     FM011200 20004KT 5SM BR BKN010
     FM011500 23005KT P6SM BKN025
     FM011700 23008KT P6SM BKN035=



000
FTUS41 KPBZ 010000 AAA
TAFPIT
TAF AMD
KPIT 010013Z 0100/0206 18005KT P6SM -SHRA SCT017 BKN040 OVC070
     FM010100 21007KT 6SM BR VCSH SCT005 SCT023 BKN120
     FM010400 20005KT 4SM BR BKN007
     FM011200 20004KT 5SM BR BKN010
     FM011500 23005KT P6SM BKN025
     FM011700 23008KT P6SM BKN035=



000
FTUS41 KPBZ 312300
TAFHLG
TAF
KHLG 312320Z 0100/0124 19008KT P6SM VCSH FEW018 SCT026 OVC060
     FM010500 20005KT 3SM BR OVC012
     FM010700 20005KT 3SM BR OVC003
     FM011400 20004KT 5SM BR BKN010
     FM011600 23005KT P6SM BKN025
     FM011800 23008KT P6SM SCT035=



000
FTUS41 KPBZ 312300
TAFAGC
TAF
KAGC 312320Z 0100/0124 21006KT 6SM SHRA BR SCT005 OVC023
     FM010100 21007KT 6SM BR VCSH SCT005 SCT023 BKN120
     FM010400 20005KT 4SM BR BKN007
     FM011200 20004KT 5SM BR BKN010
     FM011500 23005KT P6SM BKN025
     FM011700 23008KT P6SM BKN035=



000
FTUS41 KPBZ 312300
TAFDUJ
TAF
KDUJ 312320Z 0100/0124 23009KT P6SM FEW015 SCT021 BKN040
      TEMPO 0101/0103 5SM -SHRA BR BKN020 BKN050 OVC110
     FM010300 22006KT 6SM BR SCT050 BKN120
     FM010500 VRB03KT 2SM BR OVC004
     FM011300 23005KT 4SM BR BKN010
     FM011600 23007KT P6SM BKN025
     FM011700 24010KT P6SM SCT035=



000
FTUS41 KPBZ 312300
TAFBVI
TAF
KBVI 312320Z 0100/0124 21006KT 5SM -SHRA BR SCT005 OVC023
     FM010100 21007KT 6SM BR VCSH SCT005 SCT023 BKN120
     FM010400 20005KT 4SM BR BKN007
     FM011200 20004KT 5SM BR BKN010
     FM011500 23005KT P6SM BKN025
     FM011700 23008KT P6SM BKN035
      AMD NOT SKED 0101/0111=



000
FTUS41 KPBZ 312300
TAFPIT
TAF
KPIT 312320Z 0100/0206 21006KT 2SM +SHRA BR SCT005 OVC023
     FM010100 21007KT 6SM BR VCSH SCT005 SCT023 BKN120
     FM010400 20005KT 4SM BR BKN007
     FM011200 20004KT 5SM BR BKN010
     FM011500 23005KT P6SM BKN025
     FM011700 23008KT P6SM BKN035=



000
FTUS41 KPBZ 312300
TAFZZV
TAF
KZZV 312320Z 0100/0124 22005KT P6SM SCT035 OVC050
     FM010500 VRB03KT 4SM BR SCT003 SCT050
     FM010800 20005KT 2SM BR OVC003
     FM011400 20004KT 5SM BR BKN010
     FM011600 23005KT P6SM SCT025=



000
FTUS41 KPBZ 312300
TAFMGW
TAF
KMGW 312320Z 0100/0124 23006KT P6SM VCSH OVC070
     FM010600 20006KT 5SM BR BKN015
     FM011500 23005KT P6SM BKN025
     FM011800 23008KT P6SM SCT035=



000
FTUS41 KPBZ 312300
TAFLBE
TAF
KLBE 312320Z 0100/0124 24006KT P6SM VCSH FEW045 SCT050 BKN060
     FM010600 20005KT 4SM BR BKN007
     FM011300 20004KT 5SM BR BKN010
     FM011600 23005KT P6SM BKN025
     FM011800 23008KT P6SM BKN035=



000
FTUS41 KPBZ 312000 AAB
TAFPIT
TAF AMD
KPIT 312058Z 3121/0124 22005KT P6SM VCSH SCT025 BKN035
      TEMPO 3121/3123 5SM -SHRA BKN025
     FM010800 20005KT 3SM BR OVC004
     FM011200 20004KT 5SM BR BKN010
     FM011500 23005KT P6SM BKN025
     FM011800 23008KT P6SM BKN035=



000
FTUS41 KPBZ 312000 AAB
TAFBVI
TAF AMD
KBVI 312000Z 3120/0118 20005KT P6SM VCSH SCT015 BKN025
      TEMPO 3120/3123 5SM -SHRA BKN015
     FM010800 20005KT 2SM BR OVC004
     FM011200 20004KT 5SM BR BKN008
     FM011500 23005KT P6SM BKN015=



000
FTUS41 KPBZ 311900 AAA
TAFZZV
TAF AMD
KZZV 311959Z 3120/0118 20005KT P6SM SCT025 BKN040
      TEMPO 3120/3122 6SM -SHRA BKN025
     FM010800 20005KT 2SM BR OVC004
     FM011200 20004KT 5SM BR BKN010
     FM011500 23005KT P6SM BKN025=



000
FTUS41 KPBZ 311900 AAB
TAFMGW
TAF AMD
KMGW 311957Z 3120/0118 20008KT P6SM VCSH BKN025
      TEMPO 3120/3124 5SM -SHRA
     FM010700 20006KT 5SM BR BKN015
     FM011500 23005KT P6SM BKN025=



000
FTUS41 KPBZ 311900 AAA
TAFHLG
TAF AMD
KHLG 311954Z 3120/0118 20005KT P6SM VCSH SCT015 BKN025
      TEMPO 3120/3123 5SM -SHRA BKN015
     FM010800 20005KT 3SM BR OVC004
     FM011200 20004KT 5SM BR BKN010
     FM011500 23005KT P6SM BKN025=



000
FTUS41 KPBZ 311900 AAB
TAFLBE
TAF AMD
KLBE 311951Z 3120/0118 22008KT P6SM VCSH SCT015 BKN025
      TEMPO 3120/3123 5SM -SHRA BKN015
     FM010800 20005KT 2SM BR OVC004
     FM011200 20004KT 5SM BR BKN008
     FM011500 23005KT P6SM BKN015=



000
FTUS41 KPBZ 311900 AAA
TAFBVI
TAF AMD
KBVI 311949Z 3120/0118 20005KT P6SM VCSH SCT006 OVC015
      TEMPO 3120/3123 5SM -SHRA BKN006
     FM010000 21008KT 5SM -SHRA OVC010
     FM010800 20005KT 2SM BR OVC004
     FM011200 20004KT 5SM BR BKN008
     FM011500 23005KT P6SM BKN015=



000
FTUS41 KPBZ 311900 AAA
TAFAGC
TAF AMD
KAGC 311948Z 3120/0118 21005KT P6SM VCSH SCT015 BKN025
      TEMPO 3120/3123 5SM -SHRA BKN015
     FM010800 20005KT 3SM BR OVC004
     FM011200 20004KT 5SM BR BKN010
     FM011500 23005KT P6SM BKN025=



000
FTUS41 KPBZ 311900 AAA
TAFPIT
TAF AMD
KPIT 311947Z 3120/0124 22005KT P6SM VCSH SCT015 BKN025
      TEMPO 3120/3123 5SM -SHRA BKN015
     FM010800 20005KT 3SM BR OVC004
     FM011200 20004KT 5SM BR BKN010
     FM011500 23005KT P6SM BKN025
     FM011800 23008KT P6SM BKN035=



000
FTUS41 KPBZ 311800 AAA
TAFMGW
TAF AMD
KMGW 311841Z 3119/0118 20008KT P6SM -RA SCT015 BKN050
      TEMPO 3119/3120 BKN015
     FM010000 21008KT 5SM -SHRA OVC020
     FM010300 20006KT 2SM RA BR BKN006
     FM011200 20004KT 5SM BR BKN010
     FM011500 23005KT P6SM BKN025=



000
FTUS41 KPBZ 311800 AAA
TAFLBE
TAF AMD
KLBE 311835Z 3119/0118 22008KT 3SM -RA BR SCT006 BKN015
      TEMPO 3119/3120 3SM -RA BR BKN006
     FM010000 21008KT 5SM -SHRA OVC015
     FM010800 20005KT 2SM BR OVC004
     FM011200 20004KT 5SM BR BKN008
     FM011500 23005KT P6SM BKN015=



000
FTUS41 KPBZ 311700
TAFMGW
TAF
KMGW 311737Z 3118/0118 20008KT P6SM -RA SCT015 BKN050
      TEMPO 3118/3120 3SM -RA BR BKN008
     FM010000 21008KT 5SM -SHRA OVC020
     FM010300 20006KT 2SM RA BR BKN006
     FM011200 20004KT 5SM BR BKN010
     FM011500 23005KT P6SM BKN025=



000
FTUS41 KPBZ 311700
TAFPIT
TAF
KPIT 311737Z 3118/0124 22005KT P6SM -RA SCT008 BKN040
      TEMPO 3118/3120 3SM -RA BR BKN015
     FM010000 21008KT 5SM -SHRA OVC020
     FM010800 20005KT 3SM BR OVC004
     FM011200 20004KT 5SM BR BKN010
     FM011500 23005KT P6SM BKN025
     FM011800 23008KT P6SM BKN035=



000
FTUS41 KPBZ 311700
TAFBVI
TAF
KBVI 311737Z 3118/0118 20005KT P6SM -RA BKN008 OVC035
     FM010000 21008KT 5SM -SHRA OVC010
     FM010800 20005KT 2SM BR OVC004
     FM011200 20004KT 5SM BR BKN008
     FM011500 23005KT P6SM BKN015=



000
FTUS41 KPBZ 311700
TAFDUJ
TAF
KDUJ 311737Z 3118/0118 21008KT P6SM SHRA SCT010 OVC025
      TEMPO 3118/3120 5SM -SHRA BR BKN008
     FM312000 21008KT 6SM -SHRA BR OVC015
     FM010300 20005KT 6SM BR OVC008
     FM010600 18004KT 2SM BR OVC004
     FM011200 19005KT 4SM BR BKN010
     FM011500 21007KT P6SM BKN025=



000
FTUS41 KPBZ 311700
TAFZZV
TAF
KZZV 311737Z 3118/0118 20005KT P6SM -RA SCT010 OVC050
      TEMPO 3118/3119 5SM -RA BR BKN010
     FM010000 21008KT 5SM -SHRA OVC020
     FM010800 20005KT 2SM BR OVC004
     FM011200 20004KT 5SM BR BKN010
     FM011500 23005KT P6SM BKN025=



000
FTUS41 KPBZ 311700
TAFHLG
TAF
KHLG 311737Z 3118/0118 20005KT P6SM -RA SCT008 OVC050
      TEMPO 3118/3120 5SM -RA BR BKN008
     FM010000 21008KT 5SM -SHRA OVC020
     FM010800 20005KT 3SM BR OVC004
     FM011200 20004KT 5SM BR BKN010
     FM011500 23005KT P6SM BKN025=



000
FTUS41 KPBZ 311700
TAFLBE
TAF
KLBE 311737Z 3118/0118 22008KT 3SM -RA BR SCT006 BKN025
      TEMPO 3118/3120 3SM -RA BR BKN015
     FM010000 21008KT 5SM -SHRA OVC015
     FM010800 20005KT 2SM BR OVC004
     FM011200 20004KT 5SM BR BKN008
     FM011500 23005KT P6SM BKN015=



000
FTUS41 KPBZ 311700
TAFAGC
TAF
KAGC 311737Z 3118/0118 21005KT P6SM -RA SCT008 BKN050
      TEMPO 3118/3120 3SM -RA BR BKN004
     FM010000 21008KT 5SM -SHRA OVC020
     FM010800 20005KT 3SM BR OVC004
     FM011200 20004KT 5SM BR BKN010
     FM011500 23005KT P6SM BKN025=



000
FTUS41 KPBZ 311600 AAB
TAFLBE
TAF AMD
KLBE 311616Z 3116/0112 22010KT 5SM SHRA OVC025
      TEMPO 3116/3117 2SM RA BR BKN006
     FM312000 21010KT 5SM -SHRA VCTS OVC020CB
     FM312300 24010KT 6SM -SHRA BR OVC020
     FM010600 20005KT 4SM BR VCSH OVC008=



000
FTUS41 KPBZ 311600 AAB
TAFZZV
TAF AMD
KZZV 311616Z 3116/0112 20008KT 5SM SHRA SCT008 BKN050
     FM311900 20008KT 5SM -SHRA VCTS OVC020CB
     FM312200 19005KT 6SM -SHRA BR OVC020
     FM010300 20005KT 4SM BR OVC008=



000
FTUS41 KPBZ 311600 AAC
TAFBVI
TAF AMD
KBVI 311615Z 3116/0112 22008KT 5SM -SHRA OVC005
     FM312000 21008KT 5SM -SHRA VCTS OVC020CB
     FM312300 20005KT 6SM -SHRA BR OVC020
     FM010600 20005KT 4SM BR OVC008=



000
FTUS41 KPBZ 311600 AAB
TAFPIT
TAF AMD
KPIT 311614Z 3116/0118 21005KT P6SM SHRA SCT008 BKN050
     FM312000 21008KT 5SM -SHRA VCTS OVC025CB
     FM312300 20005KT 6SM -SHRA BR OVC020
     FM010600 20005KT 4SM BR OVC008
     FM011500 23005KT P6SM BKN015=



000
FTUS41 KPBZ 311500 AAB
TAFHLG
TAF AMD
KHLG 311500Z 3115/0112 20005KT 5SM SHRA BR SCT008 OVC015
      TEMPO 3115/3118 2SM RA BR BKN008
     FM312000 21008KT 5SM -SHRA VCTS OVC020CB
     FM312300 22005KT 6SM -SHRA OVC020
     FM010600 20005KT 4SM BR OVC008=



000
FTUS41 KPBZ 311400 AAA
TAFDUJ
TAF AMD
KDUJ 311458Z 3115/0112 21008KT 4SM RA BR SCT005 BKN008
     FM311700 21008KT 3SM SHRA BR OVC010
     FM312000 23005KT 6SM -SHRA BR OVC020
     FM010400 20005KT 4SM BR OVC006=



000
FTUS41 KPBZ 311400 AAA
TAFZZV
TAF AMD
KZZV 311457Z 3115/0112 20008KT 5SM SHRA OVC007
     FM311900 20008KT 5SM -SHRA VCTS OVC020CB
     FM312200 19005KT 6SM -SHRA BR OVC020
     FM010300 20005KT 4SM BR OVC008=



000
FTUS41 KPBZ 311400 AAB
TAFBVI
TAF AMD
KBVI 311457Z 3115/0112 22005KT 4SM SHRA OVC005
     FM311600 22008KT 3SM -SHRA OVC015
     FM312000 21008KT 5SM -SHRA VCTS OVC020CB
     FM312300 20005KT 6SM -SHRA BR OVC020
     FM010600 20005KT 4SM BR OVC008=



000
FTUS41 KPBZ 311400 AAA
TAFMGW
TAF AMD
KMGW 311456Z 3115/0112 22005KT P6SM SHRA SCT015 BKN025
     FM312000 21005KT 5SM -SHRA VCTS OVC020CB
     FM312300 21005KT 6SM -SHRA BR OVC020
     FM010600 20005KT 4SM BR VCSH OVC008=



000
FTUS41 KPBZ 311400 AAA
TAFPIT
TAF AMD
KPIT 311438Z 3115/0118 21005KT 4SM SHRA SCT008 BKN025
      TEMPO 3115/3118 2SM RA BR BKN008
     FM312000 21008KT 5SM -SHRA VCTS OVC020CB
     FM312300 20005KT 6SM -SHRA BR OVC020
     FM010600 20005KT 4SM BR OVC008
     FM011500 23005KT P6SM BKN015=



000
FTUS41 KPBZ 311400 AAA
TAFLBE
TAF AMD
KLBE 311419Z 3114/0112 22010KT 5SM SHRA OVC030
      TEMPO 3114/3117 2SM RA BR BKN015
     FM312000 21010KT 5SM -SHRA VCTS OVC020CB
     FM312300 24010KT 6SM -SHRA BR OVC020
     FM010600 20005KT 4SM BR VCSH OVC008=



000
FTUS41 KPBZ 311400 AAA
TAFAGC
TAF AMD
KAGC 311418Z 3114/0112 22005KT 2SM SHRA SCT020 BKN035
      TEMPO 3114/3116 1SM RA BR BKN005
     FM312000 21008KT 5SM -SHRA VCTS OVC020CB
     FM312300 20005KT 6SM -SHRA BR OVC020
     FM010600 20005KT 4SM BR OVC008=



000
FTUS41 KPBZ 311300 AAA
TAFBVI
TAF AMD
KBVI 311303Z 3113/0112 22005KT 3SM SHRA OVC003
     FM311600 22008KT 3SM -SHRA OVC015
     FM312000 21008KT 5SM -SHRA VCTS OVC020CB
     FM312300 20005KT 6SM -SHRA BR OVC020
     FM010600 20005KT 4SM BR OVC008=



000
FTUS41 KPBZ 311200 AAA
TAFHLG
TAF AMD
KHLG 311254Z 3113/0112 20005KT 3SM SHRA BR SCT005 OVC015
      TEMPO 3113/3114 2SM -RA BR BKN005
     FM312000 21008KT 5SM -SHRA VCTS OVC020CB
     FM312300 22005KT 6SM -SHRA OVC020
     FM010600 20005KT 4SM BR OVC008=



000
FTUS41 KPBZ 311100
TAFMGW
TAF
KMGW 311138Z 3112/0112 20005KT 5SM -SHRA OVC035
     FM311400 22005KT 3SM SHRA OVC015
     FM312000 21005KT 5SM -SHRA VCTS OVC020CB
     FM312300 21005KT 6SM -SHRA BR OVC020
     FM010600 20005KT 4SM BR VCSH OVC008=



000
FTUS41 KPBZ 311100
TAFDUJ
TAF
KDUJ 311138Z 3112/0112 21005KT 5SM -SHRA OVC040
      TEMPO 3112/3114 2SM -RA BR BKN015
     FM311400 21008KT 2SM SHRA BR OVC007
     FM311700 21008KT 3SM SHRA BR OVC010
     FM312000 23005KT 6SM -SHRA BR OVC020
     FM010400 20005KT 4SM BR OVC006=



000
FTUS41 KPBZ 311100
TAFAGC
TAF
KAGC 311138Z 3112/0112 22005KT 2SM SHRA SCT020 BKN050
      TEMPO 3112/3114 1SM -RA BR BKN002
     FM312000 21008KT 5SM -SHRA VCTS OVC020CB
     FM312300 20005KT 6SM -SHRA BR OVC020
     FM010600 20005KT 4SM BR OVC008=



000
FTUS41 KPBZ 311100
TAFBVI
TAF
KBVI 311138Z 3112/0112 22005KT 3SM SHRA OVC009
     FM311600 22008KT 3SM -SHRA OVC015
     FM312000 21008KT 5SM -SHRA VCTS OVC020CB
     FM312300 20005KT 6SM -SHRA BR OVC020
     FM010600 20005KT 4SM BR OVC008=



000
FTUS41 KPBZ 311100
TAFZZV
TAF
KZZV 311138Z 3112/0112 20008KT 3SM SHRA OVC015
     FM311900 20008KT 5SM -SHRA VCTS OVC020CB
     FM312200 19005KT 6SM -SHRA BR OVC020
     FM010300 20005KT 4SM BR OVC008=



000
FTUS41 KPBZ 311100
TAFLBE
TAF
KLBE 311138Z 3112/0112 22008KT 4SM -SHRA SCT015 OVC030
      TEMPO 3112/3114 1SM -RA BR BKN015
     FM311400 22010KT 3SM SHRA OVC015
     FM312000 21010KT 5SM -SHRA VCTS OVC020CB
     FM312300 24010KT 6SM -SHRA BR OVC020
     FM010600 20005KT 4SM BR VCSH OVC008=



000
FTUS41 KPBZ 311100
TAFPIT
TAF
KPIT 311138Z 3112/0118 21005KT 3SM SHRA SCT020 BKN050
      TEMPO 3112/3114 1SM -RA BR BKN020
     FM312000 21008KT 5SM -SHRA VCTS OVC020CB
     FM312300 20005KT 6SM -SHRA BR OVC020
     FM010600 20005KT 4SM BR OVC008
     FM011500 23005KT P6SM BKN015=



000
FTUS41 KPBZ 311100
TAFHLG
TAF
KHLG 311138Z 3112/0112 20005KT 2SM SHRA BR SCT007 OVC015
      TEMPO 3112/3114 1SM -RA BR BKN007
     FM312000 21008KT 5SM -SHRA VCTS OVC020CB
     FM312300 22005KT 6SM -SHRA OVC020
     FM010600 20005KT 4SM BR OVC008=



000
FTUS41 KPBZ 311000 AAD
TAFAGC
TAF AMD
KAGC 311028Z 3110/0106 19005KT 3SM -SHRA OVC030
     FM311100 22008KT 2SM SHRA OVC015
     FM312000 21008KT 5SM -SHRA VCTS OVC020CB
     FM312300 20005KT 6SM -SHRA BR OVC020=



000
FTUS41 KPBZ 311000 CCA
TAFDUJ
TAF COR
KDUJ 311005Z 3110/0106 21005KT 5SM -SHRA OVC025
      TEMPO 3110/3111 2SM SHRA
     FM311300 21008KT 2SM SHRA BR OVC007
     FM311700 21008KT 3SM SHRA BR OVC010
     FM312000 23005KT 6SM -SHRA BR OVC020=



000
FTUS41 KPBZ 311000 AAC
TAFHLG
TAF AMD
KHLG 311001Z 3110/0106 19005KT 3SM -SHRA OVC030
      TEMPO 3110/3111 2SM BR
     FM311200 22008KT 3SM SHRA SCT007 OVC015
     FM312000 21008KT 5SM -SHRA VCTS OVC020CB
     FM312300 22005KT 6SM -SHRA OVC020=



000
FTUS41 KPBZ 311000 AAC
TAFLBE
TAF AMD
KLBE 311001Z 3110/0106 22008KT 5SM -SHRA OVC030
     FM311400 22010KT 3SM SHRA OVC015
     FM312000 21010KT 5SM -SHRA VCTS OVC020CB
     FM312300 24010KT 6SM -SHRA BR OVC020=



000
FTUS41 KPBZ 311000 AAB
TAFDUJ
TAF AMD
KDUJ 311001Z 3110/0106 21005KT 5SM -SHRA OVC025
      TEMPO 3110/3111 1 1/2SM SHRA
     FM311300 21008KT 2SM SHRA BR OVC007
     FM311700 21008KT 3SM SHRA BR OVC010
     FM312000 23005KT 6SM -SHRA BR OVC020=



000
FTUS41 KPBZ 311000 AAA
TAFMGW
TAF AMD
KMGW 311001Z 3110/0106 20005KT 5SM -SHRA OVC035
     FM311400 22005KT 3SM SHRA OVC015
     FM312000 21005KT 5SM -SHRA VCTS OVC020CB
     FM312300 21005KT 6SM -SHRA BR OVC020=



000
FTUS41 KPBZ 310800 AAC
TAFPIT
TAF AMD
KPIT 310859Z 3109/0112 21005KT 5SM -SHRA OVC030
     FM311200 22008KT 3SM SHRA OVC015
     FM312000 21008KT 5SM -SHRA VCTS OVC020CB
     FM312300 20005KT 6SM -SHRA BR OVC020
     FM010600 20005KT 4SM BR OVC010=



000
FTUS41 KPBZ 310800 AAA
TAFDUJ
TAF AMD
KDUJ 310839Z 3109/0106 21005KT 5SM -SHRA OVC025
      TEMPO 3109/3110 1 1/2SM SHRA
     FM311300 21008KT 2SM SHRA BR OVC007
     FM311700 21008KT 3SM SHRA BR OVC010
     FM312000 23005KT 6SM -SHRA BR OVC020=



000
FTUS41 KPBZ 310800 AAB
TAFLBE
TAF AMD
KLBE 310837Z 3109/0106 22008KT 5SM -SHRA OVC030
      TEMPO 3109/3110 26010G18KT 1 1/2SM -TSRA OVC030CB
     FM311400 22010KT 3SM SHRA OVC015
     FM312000 21010KT 5SM -SHRA VCTS OVC020CB
     FM312300 24010KT 6SM -SHRA BR OVC020=



000
FTUS41 KPBZ 310800 AAC
TAFAGC
TAF AMD
KAGC 310819Z 3108/0106 19005KT 5SM -SHRA OVC030
      TEMPO 3108/3109 26010G20KT 1 1/2SM -TSRA OVC030CB
     FM311200 22008KT 2SM SHRA OVC015
     FM312000 21008KT 5SM -SHRA VCTS OVC020CB
     FM312300 20005KT 6SM -SHRA BR OVC020=



000
FTUS41 KPBZ 310700 AAB
TAFHLG
TAF AMD
KHLG 310757Z 3108/0106 21005KT 5SM -SHRA OVC030
      TEMPO 3108/3109 26010G20KT 1SM -TSRA OVC030CB
     FM311200 22008KT 3SM SHRA SCT007 OVC015
     FM312000 21008KT 5SM -SHRA VCTS OVC020CB
     FM312300 22005KT 6SM -SHRA OVC020=



000
FTUS41 KPBZ 310700 AAB
TAFBVI
TAF AMD
KBVI 310752Z 3108/0106 19005KT 5SM -SHRA OVC025
      TEMPO 3108/3109 2SM SHRA
     FM311200 22008KT 3SM SHRA OVC009
     FM311600 22008KT 3SM -SHRA OVC015
     FM312000 21008KT 5SM -SHRA VCTS OVC020CB
     FM312300 20005KT 6SM -SHRA BR OVC020
      AMD NOT SKED=



000
FTUS41 KPBZ 310700 AAB
TAFPIT
TAF AMD
KPIT 310751Z 3108/0112 19005KT 6SM -SHRA OVC030
      TEMPO 3108/3109 2SM SHRA
     FM311200 22008KT 3SM SHRA OVC015
     FM312000 21008KT 5SM -SHRA VCTS OVC020CB
     FM312300 20005KT 6SM -SHRA BR OVC020
     FM010600 20005KT 4SM BR OVC010=



000
FTUS41 KPBZ 310700 AAB
TAFAGC
TAF AMD
KAGC 310749Z 3108/0106 19005KT 5SM -SHRA OVC030
      TEMPO 3108/3109 3SM -TSRA OVC030CB
     FM311200 22008KT 2SM SHRA OVC015
     FM312000 21008KT 5SM -SHRA VCTS OVC020CB
     FM312300 20005KT 6SM -SHRA BR OVC020=



000
FTUS41 KPBZ 310700 AAA
TAFLBE
TAF AMD
KLBE 310705Z 3107/0106 18005KT P6SM OVC150
     FM310900 22010KT 5SM -SHRA OVC030
     FM311400 22010KT 3SM SHRA OVC015
     FM312000 21010KT 5SM -SHRA VCTS OVC020CB
     FM312300 24010KT 6SM -SHRA BR OVC020=



000
FTUS41 KPBZ 310700 AAA
TAFPIT
TAF AMD
KPIT 310705Z 3107/0112 18005KT P6SM OVC150
     FM310800 21005KT 6SM -SHRA OVC030
     FM311200 22008KT 3SM SHRA OVC015
     FM312000 21008KT 5SM -SHRA VCTS OVC020CB
     FM312300 20005KT 6SM -SHRA BR OVC020
     FM010600 20005KT 4SM BR OVC010=



000
FTUS41 KPBZ 310700 AAA
TAFHLG
TAF AMD
KHLG 310705Z 3107/0106 21005KT 5SM -SHRA OVC030
     FM311200 22008KT 3SM SHRA SCT007 OVC015
     FM312000 21008KT 5SM -SHRA VCTS OVC020CB
     FM312300 22005KT 6SM -SHRA OVC020=



000
FTUS41 KPBZ 310700 AAA
TAFBVI
TAF AMD
KBVI 310705Z 3107/0106 18005KT P6SM OVC150
     FM310800 21005KT 5SM -SHRA OVC025
     FM311200 22008KT 3SM SHRA OVC009
     FM311600 22008KT 3SM -SHRA OVC015
     FM312000 21008KT 5SM -SHRA VCTS OVC020CB
     FM312300 20005KT 6SM -SHRA BR OVC020
      AMD NOT SKED=



000
FTUS41 KPBZ 310700 AAA
TAFAGC
TAF AMD
KAGC 310705Z 3107/0106 18005KT P6SM OVC150
     FM310800 21005KT 5SM -SHRA OVC030
     FM311200 22008KT 3SM SHRA OVC015
     FM312000 21008KT 5SM -SHRA VCTS OVC020CB
     FM312300 20005KT 6SM -SHRA BR OVC020=



000
FTUS41 KPBZ 310500
TAFHLG
TAF
KHLG 310526Z 3106/0106 19005KT P6SM OVC150
     FM310900 21005KT 5SM -SHRA OVC030
     FM311200 22008KT 3SM SHRA SCT007 OVC015
     FM312000 21008KT 5SM -SHRA VCTS OVC020CB
     FM312300 22005KT 6SM -SHRA OVC020=



000
FTUS41 KPBZ 310500
TAFLBE
TAF
KLBE 310526Z 3106/0106 18005KT P6SM OVC150
     FM311100 22010KT 5SM -SHRA OVC030
     FM311400 22010KT 3SM SHRA OVC015
     FM312000 21010KT 5SM -SHRA VCTS OVC020CB
     FM312300 24010KT 6SM -SHRA BR OVC020=



000
FTUS41 KPBZ 310500
TAFMGW
TAF
KMGW 310526Z 3106/0106 19003KT P6SM OVC150
     FM311000 21005KT 6SM -SHRA OVC035
     FM311400 22005KT 3SM SHRA OVC015
     FM312000 21005KT 5SM -SHRA VCTS OVC020CB
     FM312300 21005KT 6SM -SHRA BR OVC020=



000
FTUS41 KPBZ 310500
TAFAGC
TAF
KAGC 310526Z 3106/0106 17005KT P6SM OVC150
     FM310900 21005KT 5SM -SHRA OVC030
     FM311200 22008KT 3SM SHRA OVC015
     FM312000 21008KT 5SM -SHRA VCTS OVC020CB
     FM312300 20005KT 6SM -SHRA BR OVC020=



000
FTUS41 KPBZ 310500
TAFZZV
TAF
KZZV 310526Z 3106/0106 23003KT P6SM VCSH OVC100
     FM310700 21005KT 5SM -SHRA OVC030
     FM311000 21008KT 3SM SHRA BR OVC009
     FM311500 20008KT 3SM SHRA OVC015
     FM311900 20008KT 5SM -SHRA VCTS OVC020CB
     FM312200 19005KT 6SM -SHRA BR OVC020=



000
FTUS41 KPBZ 310500
TAFBVI
TAF
KBVI 310526Z 3106/0106 18005KT P6SM OVC150
     FM310900 21005KT 5SM -SHRA OVC025
     FM311200 22008KT 3SM SHRA OVC009
     FM311600 22008KT 3SM -SHRA OVC015
     FM312000 21008KT 5SM -SHRA VCTS OVC020CB
     FM312300 20005KT 6SM -SHRA BR OVC020
      AMD NOT SKED=



000
FTUS41 KPBZ 310500
TAFPIT
TAF
KPIT 310526Z 3106/0112 18005KT P6SM OVC150
     FM310900 21005KT 6SM -SHRA OVC030
     FM311200 22008KT 3SM SHRA OVC015
     FM312000 21008KT 5SM -SHRA VCTS OVC020CB
     FM312300 20005KT 6SM -SHRA BR OVC020
     FM010600 20005KT 4SM BR OVC010=



000
FTUS41 KPBZ 310500
TAFDUJ
TAF
KDUJ 310526Z 3106/0106 17007KT P6SM OVC100
     FM311100 21005KT 5SM -SHRA OVC025
     FM311300 21008KT 2SM SHRA BR OVC007
     FM311700 21008KT 3SM SHRA BR OVC010
     FM312000 23005KT 6SM -SHRA BR OVC020=



000
FTUS41 KPBZ 310400 AAA
TAFZZV
TAF AMD
KZZV 310430Z 3105/3124 21005KT P6SM VCSH BKN150
     FM310700 21005KT 5SM -SHRA OVC030
     FM311000 21008KT 3SM -SHRA BR OVC009
     FM311500 20008KT 3SM -SHRA OVC015
     FM311900 20008KT 5SM -SHRA VCTS OVC020CB
     FM312200 19005KT 6SM -SHRA BR OVC020=



000
FTUS41 KPBZ 310200 AAA
TAFPIT
TAF AMD
KPIT 310238Z 3103/0106 19008KT P6SM BKN150
     FM310800 21005KT 6SM -SHRA OVC035
     FM311200 23008KT 3SM -SHRA OVC015
     FM312000 22008KT 5SM -SHRA VCTS OVC020CB
     FM312300 20005KT 6SM -SHRA BR OVC020=



000
FTUS41 KPBZ 302300
TAFHLG
TAF
KHLG 302322Z 3100/3124 19005KT P6SM BKN150
     FM310800 21005KT 5SM -SHRA OVC030
     FM311200 23008KT 3SM -SHRA SCT007 OVC015
     FM312000 22008KT 5SM -SHRA VCTS OVC020CB
     FM312300 22005KT 6SM -SHRA OVC020=



000
FTUS41 KPBZ 302300
TAFAGC
TAF
KAGC 302322Z 3100/3124 19008KT P6SM BKN150
     FM310800 21005KT 5SM -SHRA OVC030
     FM311200 23008KT 3SM -SHRA OVC015
     FM312000 22008KT 5SM -SHRA VCTS OVC020CB
     FM312300 20005KT 6SM -SHRA BR OVC020=



000
FTUS41 KPBZ 302300
TAFZZV
TAF
KZZV 302322Z 3100/3124 21005KT P6SM VCSH BKN150
     FM310500 21005KT 5SM -SHRA OVC030
     FM311000 21008KT 3SM -SHRA BR OVC009
     FM311500 20008KT 3SM -SHRA OVC015
     FM311900 20008KT 5SM -SHRA VCTS OVC020CB
     FM312200 19005KT 6SM -SHRA BR OVC020=



000
FTUS41 KPBZ 302300
TAFLBE
TAF
KLBE 302322Z 3100/3124 21008KT P6SM BKN200
     FM311000 22010KT 5SM -SHRA OVC030
     FM311400 23010KT 3SM -SHRA OVC015
     FM312000 22010KT 5SM -SHRA VCTS OVC020CB
     FM312300 24010KT 6SM -SHRA BR OVC020=



000
FTUS41 KPBZ 302300
TAFBVI
TAF
KBVI 302322Z 3100/3124 19008KT P6SM BKN150
     FM310800 21005KT 5SM -SHRA OVC025
     FM311200 23008KT 3SM -SHRA OVC009
     FM311600 23008KT 3SM -SHRA OVC015
     FM312000 22008KT 5SM -SHRA VCTS OVC020CB
     FM312300 20005KT 6SM -SHRA BR OVC020
      AMD NOT SKED=



000
FTUS41 KPBZ 302300
TAFMGW
TAF
KMGW 302322Z 3100/3124 19005KT P6SM BKN200
     FM311000 21005KT 6SM -SHRA OVC035
     FM311400 23005KT 3SM -SHRA OVC015
     FM312000 22005KT 5SM -SHRA VCTS OVC020CB
     FM312300 21005KT 6SM -SHRA BR OVC020=



000
FTUS41 KPBZ 302300
TAFDUJ
TAF
KDUJ 302322Z 3100/3124 22008KT P6SM BKN200
     FM310900 21005KT 5SM -SHRA OVC025
     FM311300 23008KT 2SM -SHRA BR OVC007
     FM311700 22008KT 3SM -SHRA BR OVC010
     FM312000 23005KT 6SM -SHRA BR OVC020=



000
FTUS41 KPBZ 302300
TAFPIT
TAF
KPIT 302322Z 3100/0106 19008KT P6SM BKN150
     FM310800 21005KT 5SM -SHRA OVC030
     FM311200 23008KT 3SM -SHRA OVC015
     FM312000 22008KT 5SM -SHRA VCTS OVC020CB
     FM312300 20005KT 6SM -SHRA BR OVC020=



000
FTUS41 KPBZ 302100 CCA
TAFDUJ
TAF COR
KDUJ 302126Z 3021/3118 22008KT P6SM SCT050 BKN150
     FM310900 21005KT 5SM -SHRA OVC025
     FM311300 23008KT 2SM -SHRA BR OVC007=



000
FTUS41 KPBZ 302100 AAA
TAFDUJ
TAF AMD
KDUJ 302124Z 3021/3118 20008KT P6SM SCT050 BKN150
     FM310900 21005KT 5SM -SHRA OVC025
     FM311300 23008KT 2SM -SHRA BR OVC007=



000
FTUS41 KPBZ 302100 AAA
TAFZZV
TAF AMD
KZZV 302120Z 3021/3118 19008KT P6SM SCT050 BKN150
     FM310600 21005KT 5SM -SHRA OVC030
     FM311000 21008KT 3SM -SHRA OVC009
     FM311500 20008KT 3SM -SHRA OVC015=



000
FTUS41 KPBZ 302100 AAA
TAFMGW
TAF AMD
KMGW 302116Z 3021/3118 19005KT P6SM SCT050 BKN150
     FM311000 21005KT 6SM -SHRA OVC035
     FM311400 23005KT 3SM -SHRA OVC015=



000
FTUS41 KPBZ 302100 AAA
TAFHLG
TAF AMD
KHLG 302113Z 3021/3118 19008KT P6SM SCT050 BKN150
     FM310800 21005KT 5SM -SHRA OVC030
     FM311200 23008KT 3SM -SHRA OVC015=



000
FTUS41 KPBZ 302100 AAA
TAFLBE
TAF AMD
KLBE 302112Z 3021/3118 21008KT P6SM SCT050 BKN150
     FM311000 22010KT 5SM -SHRA OVC030
     FM311400 23010KT 3SM -SHRA OVC015=



000
FTUS41 KPBZ 302100 AAA
TAFBVI
TAF AMD
KBVI 302101Z 3021/3118 19008KT P6SM SCT050 BKN150
     FM310800 21005KT 3SM -SHRA OVC025
     FM311200 23008KT 3SM -SHRA OVC009
     FM311600 23008KT 3SM -SHRA OVC015=



000
FTUS41 KPBZ 302000 AAA
TAFAGC
TAF AMD
KAGC 302059Z 3021/3118 19008KT P6SM SCT050 BKN150
     FM310800 21005KT 3SM -SHRA OVC030
     FM311200 23008KT 3SM -SHRA OVC015=



000
FTUS41 KPBZ 302000 AAA
TAFPIT
TAF AMD
KPIT 302056Z 3021/3124 19008KT P6SM SCT050 BKN150
     FM310800 21005KT 3SM -SHRA OVC030
     FM311200 23008KT 3SM -SHRA OVC015
     FM312000 22008KT 5SM -SHRA VCTS OVC020CB
     FM312300 20005KT 6SM -SHRA BR OVC020=



000
FTUS41 KPBZ 301700
TAFDUJ
TAF
KDUJ 301720Z 3018/3118 20010G17KT P6SM SCT090 SCT250
     FM310000 20007KT P6SM SCT050 BKN150
     FM310800 22005KT P6SM -SHRA VCTS BKN035CB
     FM311200 22006KT 2SM SHRA OVC005=



000
FTUS41 KPBZ 301700
TAFLBE
TAF
KLBE 301720Z 3018/3118 20010G16KT P6SM SCT080
     FM310000 19005KT P6SM BKN250
     FM311000 22005KT P6SM -SHRA VCTS OVC030CB
     FM311300 22005KT 2SM SHRA OVC012
     FM311600 22005KT 3SM SHRA OVC010=



000
FTUS41 KPBZ 301700
TAFBVI
TAF
KBVI 301720Z 3018/3118 21010G16KT P6SM FEW060
     FM310000 19005KT P6SM BKN250
     FM310900 22005KT P6SM -SHRA VCTS OVC030CB
     FM311100 22005KT 2SM SHRA OVC012
     FM311500 22005KT 3SM SHRA OVC010=



000
FTUS41 KPBZ 301700
TAFMGW
TAF
KMGW 301720Z 3018/3118 20010G16KT P6SM FEW060
     FM310100 19005KT P6SM BKN250
     FM311000 22005KT P6SM -SHRA OVC030
     FM311400 22005KT 3SM SHRA OVC015=



000
FTUS41 KPBZ 301700
TAFPIT
TAF
KPIT 301720Z 3018/3124 21010G16KT P6SM FEW060
     FM310000 19005KT P6SM BKN250
     FM310900 22005KT P6SM -SHRA VCTS OVC030CB
     FM311200 22005KT 2SM SHRA OVC012
     FM311500 22005KT 3SM SHRA OVC010=



000
FTUS41 KPBZ 301700
TAFAGC
TAF
KAGC 301720Z 3018/3118 21010G16KT P6SM FEW060
     FM310000 19005KT P6SM BKN250
     FM310900 22005KT P6SM -SHRA VCTS OVC030CB
     FM311200 22005KT 2SM SHRA OVC012
     FM311500 22005KT 3SM SHRA OVC010=



000
FTUS41 KPBZ 301700
TAFHLG
TAF
KHLG 301720Z 3018/3118 21010G17KT P6SM FEW060
     FM310000 19005KT P6SM BKN250
     FM310800 22005KT P6SM -SHRA VCTS OVC030CB
     FM311100 22005KT 2SM SHRA OVC012
     FM311500 22005KT 3SM SHRA OVC010=



000
FTUS41 KPBZ 301700
TAFZZV
TAF
KZZV 301720Z 3018/3118 21010G17KT P6SM SCT250
     FM310000 22005KT P6SM VCSH BKN060 OVC150
     FM310600 22005KT 4SM SHRA VCTS OVC020CB
     FM311000 20005KT 2SM SHRA OVC007=



000
FTUS41 KPBZ 301500 AAA
TAFPIT
TAF AMD
KPIT 301504Z 3015/3118 21007KT P6SM BKN090 BKN250
     FM301630 21010KT P6SM FEW090
     FM301800 21010G17KT P6SM FEW060
     FM310000 19005KT P6SM BKN100
     FM310900 22005KT P6SM -SHRA BKN030
     FM311500 22005KT 3SM SHRA OVC010=



000
FTUS41 KPBZ 301100
TAFDUJ
TAF
KDUJ 301120Z 3012/3112 12005KT P6SM SCT250
     FM301500 20010KT P6SM BKN050
     FM310000 16006KT P6SM BKN100
     FM311000 22005KT P6SM -SHRA BKN030=



000
FTUS41 KPBZ 301100
TAFZZV
TAF
KZZV 301120Z 3012/3112 00000KT P6SM SCT250
     FM301500 20010G16KT P6SM SCT050
     FM310000 22005KT P6SM BKN100
     FM310600 22005KT P6SM -SHRA BKN030=



000
FTUS41 KPBZ 301100
TAFHLG
TAF
KHLG 301120Z 3012/3112 16005KT P6SM SCT250
     FM301500 19010G16KT P6SM SCT050
     FM310000 19005KT P6SM BKN100
     FM310800 22005KT P6SM -SHRA BKN030=



000
FTUS41 KPBZ 301100
TAFMGW
TAF
KMGW 301120Z 3012/3112 20003KT P6SM SCT250
     FM301500 20008KT P6SM SCT050
     FM311000 22005KT P6SM -SHRA BKN030=



000
FTUS41 KPBZ 301100
TAFBVI
TAF
KBVI 301120Z 3012/3112 13003KT P6SM SCT250
     FM301500 19010G16KT P6SM SCT050
     FM310000 19005KT P6SM BKN100
     FM310800 22005KT P6SM -SHRA BKN030=



000
FTUS41 KPBZ 301100
TAFLBE
TAF
KLBE 301120Z 3012/3112 00000KT P6SM SCT250
     FM301500 21010KT P6SM BKN050
     FM310000 17005KT P6SM BKN100
     FM311000 22005KT P6SM -SHRA BKN030=



000
FTUS41 KPBZ 301100
TAFAGC
TAF
KAGC 301120Z 3012/3112 13004KT P6SM SCT250
     FM301500 19010G16KT P6SM SCT050
     FM310000 19005KT P6SM BKN100
     FM310900 22005KT P6SM -SHRA BKN030=



000
FTUS41 KPBZ 301100
TAFPIT
TAF
KPIT 301120Z 3012/3118 00000KT P6SM SCT250
     FM301500 19010G16KT P6SM SCT050
     FM310000 19005KT P6SM BKN100
     FM310900 22005KT P6SM -SHRA BKN030
     FM311500 22005KT 3SM SHRA OVC010=



    US Dept of Commerce
    National Oceanic and Atmospheric Administration
    National Weather Service
    1325 East West Highway
    Silver Spring, MD 20910
    Page Author: NWS Internet Services Team
Disclaimer
Information Quality
Credits
Glossary
Privacy Policy
Freedom of Information Act (FOIA)
About Us
Career Opportunities